WetterOnline ( http://www.wetteronline.de )

Wetter aktuell Bamberg

Aktuelles Wetter: Bamberg (243m)

6-stündlich | Neueste Meldungen
Ortszeit Temperatur Wetter
Do, 17.01. 13:00 5.9° C Regen
Do, 17.01. 7:00 6.2° C leichter Regen
Do, 17.01. 1:00 1.3° C bedeckt
Mi, 16.01. 19:00 2.4° C bedeckt
Mi, 16.01. 13:00 4.6° C bedeckt
Mi, 16.01. 7:00 4.1° C leichter Regen
Mi, 16.01. 1:00 4.7° C Sprühregen
Di, 15.01. 19:00 4.6° C Sprühregen
Ortszeit Temperatur Wetter
Do, 17.01. 18:00 4.9° C leicht bewölkt
Do, 17.01. 17:50 4.9° C leicht bewölkt
Do, 17.01. 17:40 5.0° C leicht bewölkt
Do, 17.01. 17:30 4.7° C wolkig
Do, 17.01. 17:20 4.7° C wolkig
Do, 17.01. 17:10 4.4° C bewölkt
Do, 17.01. 17:00 5.1° C leichter Regen
Do, 17.01. 16:30 5.0° C leicht bewölkt
Do, 17.01. 16:00 5.3° C leicht bewölkt
Do, 17.01. 15:30 5.8° C Sprühregen
Do, 17.01. 15:00 6.1° C bedeckt
Ortszeit Relative Feuchte Sichtweite
Do, 17.01. 13:00 88% 6 km
Do, 17.01. 7:00 70% 45 km
Do, 17.01. 1:00 79% 28 km
Mi, 16.01. 19:00 82% 27 km
Mi, 16.01. 13:00 68% 30 km
Mi, 16.01. 7:00 78% 40 km
Mi, 16.01. 1:00 78% 40 km
Di, 15.01. 19:00 75% 40 km
Ortszeit Relative Feuchte Sichtweite
Do, 17.01. 18:00 77% >70 km
Do, 17.01. 17:50 77% -
Do, 17.01. 17:40 77% -
Do, 17.01. 17:30 83% -
Do, 17.01. 17:20 83% -
Do, 17.01. 17:10 83% -
Do, 17.01. 17:00 80% 45 km
Do, 17.01. 16:30 79% >70 km
Do, 17.01. 16:00 78% 55 km
Do, 17.01. 15:30 76% -
Do, 17.01. 15:00 77% >70 km
Ortszeit Niederschlagsmenge Niederschlagsart
Do, 17.01. 13:00 3 l/m2 in 6 Std. Regen
Do, 17.01. 7:00 0.1 l/m2 in 12 Std. Regen
Do, 17.01. 1:00 0.0 l/m2 in 6 Std. -
Mi, 16.01. 19:00 0.1 l/m2 in 12 Std. -
Mi, 16.01. 13:00 0.1 l/m2 in 6 Std. Regen
Mi, 16.01. 7:00 0.1 l/m2 in 12 Std. Regen
Mi, 16.01. 1:00 0.1 l/m2 in 6 Std. Regen
Di, 15.01. 19:00 0.1 l/m2 in 12 Std. Sprühregen
Ortszeit Niederschlagsmenge Niederschlagsart
Do, 17.01. 18:00 0.3 l/m2 in 1 Std. Regen
Do, 17.01. 17:50 keine Meldung -
Do, 17.01. 17:40 keine Meldung -
Do, 17.01. 17:30 0.3 l/m2 in 1 Std. -
Do, 17.01. 17:20 keine Meldung -
Do, 17.01. 17:10 keine Meldung -
Do, 17.01. 17:00 0.1 l/m2 in 1 Std. Regen
Do, 17.01. 16:30 0.0 l/m2 in 1 Std. -
Do, 17.01. 16:00 0.1 l/m2 in 1 Std. Regen
Do, 17.01. 15:30 0.0 l/m2 in 1 Std. -
Do, 17.01. 15:00 0.1 l/m2 in 1 Std. Regen
Ortszeit Stärke Spitze Richtung
km/h Bft. km/h Grad Sektor
Do, 17.01. 13:00 11 2 29 240° SW
Do, 17.01. 7:00 18 3 40 230° SW
Do, 17.01. 1:00 11 2 18 140° SO
Mi, 16.01. 19:00 11 2 22 150° SO
Mi, 16.01. 13:00 11 2 28 220° SW
Mi, 16.01. 7:00 13 3 30 220° SW
Mi, 16.01. 1:00 14 3 36 250° W
Di, 15.01. 19:00 19 3 31 230° SW
Ortszeit Stärke Spitze Richtung
km/h Bft. km/h Grad Sektor
Do, 17.01. 18:00 18 3 40 210° SW
Do, 17.01. 17:50 18 3 - 210° SW
Do, 17.01. 17:40 19 3 - 220° SW
Do, 17.01. 17:30 13 3 26 210° SW
Do, 17.01. 17:20 13 3 - 210° SW
Do, 17.01. 17:10 13 3 - 230° SW
Do, 17.01. 17:00 9 2 28 230° SW
Do, 17.01. 16:30 13 3 28 210° SW
Do, 17.01. 16:00 19 3 39 220° SW
Do, 17.01. 15:30 22 4 40 230° SW
Do, 17.01. 15:00 17 3 31 230° SW
Ortszeit Untergrenze Bedeckung Gattung
total tief tief mittel hoch
Do, 17.01. 13:00 450 m 7/8 7/8 - - -
Do, 17.01. 7:00 750 m 8/8 8/8 - - -
Do, 17.01. 1:00 5700 m 8/8 8/8 - - -
Mi, 16.01. 19:00 4500 m 8/8 8/8 - - -
Mi, 16.01. 13:00 690 m 8/8 8/8 - - -
Mi, 16.01. 7:00 630 m 8/8 8/8 - - -
Mi, 16.01. 1:00 570 m 8/8 8/8 - - -
Di, 15.01. 19:00 690 m 8/8 8/8 - - -
Ortszeit Bedeckungsgrad in Achtel und Wolkenuntergrenze
Do, 17.01. 18:00 3(900m) 4(1500m)
Do, 17.01. 17:50 3(900m) 4(1500m) 4(2400m)
Do, 17.01. 17:40 2(990m) 3(1500m) 3(2400m)
Do, 17.01. 17:30 1(540m) 5(1320m) 6(1500m)
Do, 17.01. 17:20 1(540m) 5(1320m) 6(1500m)
Do, 17.01. 17:10 1(480m) 4(1110m) 7(1350m)
Do, 17.01. 17:00 3(870m) 6(1230m) 7(3000m)
Do, 17.01. 16:30 1(1290m) 1(1500m) 5(3000m)
Do, 17.01. 16:00 1(840m) 3(1290m)
Do, 17.01. 15:30 3(1800m) 4(2100m) 7(4200m)
Do, 17.01. 15:00 8(4200m)
Ortszeit Luftdruck NN (hPa) Tendenz (hPa in 3 Std.)
Do, 17.01. 13:00 1005 - 0,9
Do, 17.01. 7:00 1006 - 0,6
Do, 17.01. 1:00 1008 - 1,3
Mi, 16.01. 19:00 1010 - 1,8
Mi, 16.01. 13:00 1014 - 1,7
Mi, 16.01. 7:00 1016 - 1,0
Mi, 16.01. 1:00 1018 - 0,7
Di, 15.01. 19:00 1018 - 0,1
Ortszeit Luftdruck NN (hPa) Tendenz (hPa in 3 Std.)
Do, 17.01. 18:00 1005 + 0,6
Do, 17.01. 17:50 1005 keine Meldung
Do, 17.01. 17:40 1005 keine Meldung
Do, 17.01. 17:30 1005 + 0,6
Do, 17.01. 17:20 1005 keine Meldung
Do, 17.01. 17:10 1005 keine Meldung
Do, 17.01. 17:00 1005 + 0,1
Do, 17.01. 16:30 1005 - 0,2
Do, 17.01. 16:00 1005 + 0,1
Do, 17.01. 15:30 1004 - 0,3
Do, 17.01. 15:00 1005 - 0,4
Ortszeit Schneehöhe (cm)
Do, 17.01. 13:00 0
Do, 17.01. 7:00 0
Do, 17.01. 1:00 0
Mi, 16.01. 19:00 0
Mi, 16.01. 13:00 0
Mi, 16.01. 7:00 0
Mi, 16.01. 1:00 0
Di, 15.01. 19:00 0
Ortszeit Schneehöhe (cm)
Do, 17.01. 18:00 0
Do, 17.01. 17:50 0
Do, 17.01. 17:40 0
Do, 17.01. 17:30 0
Do, 17.01. 17:20 0
Do, 17.01. 17:10 0
Do, 17.01. 17:00 0
Do, 17.01. 16:30 0
Do, 17.01. 16:00 0
Do, 17.01. 15:30 0
Do, 17.01. 15:00 0
Link zu dieser Seite / Seite empfehlen

Das Wetter in ...